sensor_id;sensor_type;location;lat;lon;timestamp;pressure;altitude;pressure_sealevel;temperature;humidity
52949;BME280;38812;50.942;3.644;2023-04-06T00:00:13;101744.66;;;7.28;100.00
52949;BME280;38812;50.942;3.644;2023-04-06T00:02:39;101728.00;;;7.12;100.00
52949;BME280;38812;50.942;3.644;2023-04-06T00:05:05;101729.72;;;7.15;100.00
52949;BME280;38812;50.942;3.644;2023-04-06T00:07:31;101739.34;;;7.19;100.00
52949;BME280;38812;50.942;3.644;2023-04-06T00:09:58;101731.47;;;7.16;100.00
52949;BME280;38812;50.942;3.644;2023-04-06T00:12:24;101741.91;;;7.11;100.00
52949;BME280;38812;50.942;3.644;2023-04-06T00:14:49;101724.44;;;7.06;100.00
52949;BME280;38812;50.942;3.644;2023-04-06T00:17:15;101727.06;;;7.06;100.00
52949;BME280;38812;50.942;3.644;2023-04-06T00:19:40;101727.94;;;7.06;100.00
52949;BME280;38812;50.942;3.644;2023-04-06T00:22:06;101723.59;;;7.08;100.00
52949;BME280;38812;50.942;3.644;2023-04-06T00:24:31;101724.44;;;7.04;100.00
52949;BME280;38812;50.942;3.644;2023-04-06T00:26:57;101731.44;;;7.08;100.00
52949;BME280;38812;50.942;3.644;2023-04-06T00:29:22;101722.72;;;7.08;100.00
52949;BME280;38812;50.942;3.644;2023-04-06T00:31:48;101722.72;;;7.06;100.00
52949;BME280;38812;50.942;3.644;2023-04-06T00:34:13;101720.06;;;7.00;100.00
52949;BME280;38812;50.942;3.644;2023-04-06T00:36:41;101709.56;;;6.91;100.00
52949;BME280;38812;50.942;3.644;2023-04-06T00:39:06;101696.44;;;6.85;100.00
52949;BME280;38812;50.942;3.644;2023-04-06T00:41:31;101712.13;;;6.88;100.00
52949;BME280;38812;50.942;3.644;2023-04-06T00:43:57;101705.13;;;6.84;100.00
52949;BME280;38812;50.942;3.644;2023-04-06T00:46:22;101682.41;;;6.71;100.00
52949;BME280;38812;50.942;3.644;2023-04-06T00:48:48;101698.97;;;6.76;100.00
52949;BME280;38812;50.942;3.644;2023-04-06T00:51:13;101698.13;;;6.80;100.00
52949;BME280;38812;50.942;3.644;2023-04-06T00:53:39;101691.13;;;6.76;100.00
52949;BME280;38812;50.942;3.644;2023-04-06T00:56:04;101700.72;;;6.77;100.00
52949;BME280;38812;50.942;3.644;2023-04-06T00:58:30;101689.34;;;6.72;100.00
52949;BME280;38812;50.942;3.644;2023-04-06T01:00:55;101679.78;;;6.71;100.00
52949;BME280;38812;50.942;3.644;2023-04-06T01:03:21;101681.56;;;6.78;100.00
52949;BME280;38812;50.942;3.644;2023-04-06T01:05:46;101695.53;;;6.83;100.00
52949;BME280;38812;50.942;3.644;2023-04-06T01:08:12;101680.72;;;6.79;100.00
52949;BME280;38812;50.942;3.644;2023-04-06T01:10:37;101680.72;;;6.79;100.00
52949;BME280;38812;50.942;3.644;2023-04-06T01:13:02;101678.06;;;6.74;100.00
52949;BME280;38812;50.942;3.644;2023-04-06T01:15:28;101680.72;;;6.79;100.00
52949;BME280;38812;50.942;3.644;2023-04-06T01:17:54;101679.84;;;6.78;100.00
52949;BME280;38812;50.942;3.644;2023-04-06T01:20:20;101679.00;;;6.82;100.00
52949;BME280;38812;50.942;3.644;2023-04-06T01:22:45;101669.38;;;6.78;100.00
52949;BME280;38812;50.942;3.644;2023-04-06T01:25:11;101667.63;;;6.76;100.00
52949;BME280;38812;50.942;3.644;2023-04-06T01:27:36;101666.81;;;6.83;100.00
52949;BME280;38812;50.942;3.644;2023-04-06T01:30:02;101661.66;;;6.92;100.00
52949;BME280;38812;50.942;3.644;2023-04-06T01:32:28;101658.13;;;6.84;100.00
52949;BME280;38812;50.942;3.644;2023-04-06T01:34:53;101661.63;;;6.89;100.00
52949;BME280;38812;50.942;3.644;2023-04-06T01:37:20;101660.72;;;6.84;100.00
52949;BME280;38812;50.942;3.644;2023-04-06T01:39:45;101646.75;;;6.79;100.00
52949;BME280;38812;50.942;3.644;2023-04-06T01:42:11;101650.25;;;6.79;100.00
52949;BME280;38812;50.942;3.644;2023-04-06T01:44:36;101644.97;;;6.75;100.00
52949;BME280;38812;50.942;3.644;2023-04-06T01:47:02;101630.19;;;6.71;100.00
52949;BME280;38812;50.942;3.644;2023-04-06T01:49:27;101638.03;;;6.77;100.00
52949;BME280;38812;50.942;3.644;2023-04-06T01:51:53;101636.28;;;6.76;100.00
52949;BME280;38812;50.942;3.644;2023-04-06T01:54:19;101629.31;;;6.75;100.00
52949;BME280;38812;50.942;3.644;2023-04-06T01:56:45;101638.91;;;6.76;100.00
52949;BME280;38812;50.942;3.644;2023-04-06T01:59:10;101637.13;;;6.72;100.00
52949;BME280;38812;50.942;3.644;2023-04-06T02:01:36;101629.28;;;6.72;100.00
52949;BME280;38812;50.942;3.644;2023-04-06T02:04:01;101635.41;;;6.71;100.00
52949;BME280;38812;50.942;3.644;2023-04-06T02:06:27;101630.13;;;6.65;100.00
52949;BME280;38812;50.942;3.644;2023-04-06T02:08:52;101633.63;;;6.67;100.00
52949;BME280;38812;50.942;3.644;2023-04-06T02:11:18;101628.44;;;6.70;100.00
52949;BME280;38812;50.942;3.644;2023-04-06T02:13:43;101626.69;;;6.69;100.00
52949;BME280;38812;50.942;3.644;2023-04-06T02:16:09;101633.63;;;6.68;100.00
52949;BME280;38812;50.942;3.644;2023-04-06T02:18:34;101624.06;;;6.67;100.00
52949;BME280;38812;50.942;3.644;2023-04-06T02:21:00;101617.03;;;6.62;100.00
52949;BME280;38812;50.942;3.644;2023-04-06T02:23:25;101622.28;;;6.63;100.00
52949;BME280;38812;50.942;3.644;2023-04-06T02:25:51;101619.66;;;6.62;100.00
52949;BME280;38812;50.942;3.644;2023-04-06T02:28:17;101622.25;;;6.62;100.00
52949;BME280;38812;50.942;3.644;2023-04-06T02:30:42;101624.84;;;6.59;100.00
52949;BME280;38812;50.942;3.644;2023-04-06T02:33:08;101622.25;;;6.59;100.00
52949;BME280;38812;50.942;3.644;2023-04-06T02:35:33;101626.59;;;6.60;100.00
52949;BME280;38812;50.942;3.644;2023-04-06T02:37:58;101631.84;;;6.63;100.00
52949;BME280;38812;50.942;3.644;2023-04-06T02:40:24;101614.41;;;6.59;100.00
52949;BME280;38812;50.942;3.644;2023-04-06T02:42:49;101624.06;;;6.69;100.00
52949;BME280;38812;50.942;3.644;2023-04-06T02:45:15;101621.44;;;6.66;100.00
52949;BME280;38812;50.942;3.644;2023-04-06T02:47:41;101605.75;;;6.66;100.00
52949;BME280;38812;50.942;3.644;2023-04-06T02:50:07;101615.38;;;6.70;100.00
52949;BME280;38812;50.942;3.644;2023-04-06T02:52:32;101618.84;;;6.69;100.00
52949;BME280;38812;50.942;3.644;2023-04-06T02:54:58;101613.63;;;6.69;100.00
52949;BME280;38812;50.942;3.644;2023-04-06T02:57:23;101610.16;;;6.70;100.00
52949;BME280;38812;50.942;3.644;2023-04-06T02:59:49;101610.13;;;6.71;100.00
52949;BME280;38812;50.942;3.644;2023-04-06T03:02:14;101604.00;;;6.65;100.00
52949;BME280;38812;50.942;3.644;2023-04-06T03:04:40;101606.66;;;6.68;100.00
52949;BME280;38812;50.942;3.644;2023-04-06T03:07:05;101608.38;;;6.66;100.00
52949;BME280;38812;50.942;3.644;2023-04-06T03:09:31;101600.56;;;6.69;100.00
52949;BME280;38812;50.942;3.644;2023-04-06T03:11:56;101597.91;;;6.63;100.00
52949;BME280;38812;50.942;3.644;2023-04-06T03:14:22;101602.28;;;6.67;100.00
52949;BME280;38812;50.942;3.644;2023-04-06T03:16:48;101592.69;;;6.64;100.00
52949;BME280;38812;50.942;3.644;2023-04-06T03:19:14;101598.81;;;6.68;100.00
52949;BME280;38812;50.942;3.644;2023-04-06T03:21:39;101597.06;;;6.67;100.00
52949;BME280;38812;50.942;3.644;2023-04-06T03:24:05;101590.09;;;6.66;100.00
52949;BME280;38812;50.942;3.644;2023-04-06T03:26:31;101585.72;;;6.63;100.00
52949;BME280;38812;50.942;3.644;2023-04-06T03:28:56;101588.41;;;6.71;100.00
52949;BME280;38812;50.942;3.644;2023-04-06T03:31:21;101591.84;;;6.71;100.00
52949;BME280;38812;50.942;3.644;2023-04-06T03:33:47;101589.25;;;6.71;100.00
52949;BME280;38812;50.942;3.644;2023-04-06T03:36:12;101584.91;;;6.70;100.00
52949;BME280;38812;50.942;3.644;2023-04-06T03:38:38;101593.63;;;6.71;100.00
52949;BME280;38812;50.942;3.644;2023-04-06T03:41:03;101599.69;;;6.71;100.00
52949;BME280;38812;50.942;3.644;2023-04-06T03:43:28;101578.75;;;6.64;100.00
52949;BME280;38812;50.942;3.644;2023-04-06T03:45:54;101579.66;;;6.72;100.00
52949;BME280;38812;50.942;3.644;2023-04-06T03:48:19;101584.03;;;6.70;100.00
52949;BME280;38812;50.942;3.644;2023-04-06T03:50:45;101593.63;;;6.74;100.00
52949;BME280;38812;50.942;3.644;2023-04-06T03:53:10;101581.44;;;6.70;100.00
52949;BME280;38812;50.942;3.644;2023-04-06T03:55:36;101599.72;;;6.74;100.00
52949;BME280;38812;50.942;3.644;2023-04-06T03:58:01;101585.78;;;6.69;100.00
52949;BME280;38812;50.942;3.644;2023-04-06T04:00:27;101588.41;;;6.71;100.00
52949;BME280;38812;50.942;3.644;2023-04-06T04:02:52;101586.63;;;6.73;100.00
52949;BME280;38812;50.942;3.644;2023-04-06T04:05:18;101594.47;;;6.74;100.00
52949;BME280;38812;50.942;3.644;2023-04-06T04:07:43;101589.25;;;6.71;100.00
52949;BME280;38812;50.942;3.644;2023-04-06T04:10:09;101587.50;;;6.67;100.00
52949;BME280;38812;50.942;3.644;2023-04-06T04:12:34;101590.13;;;6.69;100.00
52949;BME280;38812;50.942;3.644;2023-04-06T04:15:00;101594.47;;;6.71;100.00
52949;BME280;38812;50.942;3.644;2023-04-06T04:17:25;101586.66;;;6.70;100.00
52949;BME280;38812;50.942;3.644;2023-04-06T04:19:51;101593.59;;;6.69;100.00
52949;BME280;38812;50.942;3.644;2023-04-06T04:22:16;101591.84;;;6.67;100.00
52949;BME280;38812;50.942;3.644;2023-04-06T04:24:41;101579.59;;;6.60;100.00
52949;BME280;38812;50.942;3.644;2023-04-06T04:27:07;101590.03;;;6.60;100.00
52949;BME280;38812;50.942;3.644;2023-04-06T04:29:32;101569.09;;;6.49;100.00
52949;BME280;38812;50.942;3.644;2023-04-06T04:31:58;101584.75;;;6.50;100.00
52949;BME280;38812;50.942;3.644;2023-04-06T04:34:23;101587.41;;;6.55;100.00
52949;BME280;38812;50.942;3.644;2023-04-06T04:36:54;101579.56;;;6.57;100.00
52949;BME280;38812;50.942;3.644;2023-04-06T04:39:20;101585.66;;;6.57;100.00
52949;BME280;38812;50.942;3.644;2023-04-06T04:41:45;101590.91;;;6.57;100.00
52949;BME280;38812;50.942;3.644;2023-04-06T04:44:10;101583.06;;;6.57;100.00
52949;BME280;38812;50.942;3.644;2023-04-06T04:46:36;101584.81;;;6.60;100.00
52949;BME280;38812;50.942;3.644;2023-04-06T04:49:01;101596.19;;;6.66;100.00
52949;BME280;38812;50.942;3.644;2023-04-06T04:51:27;101590.09;;;6.66;100.00
52949;BME280;38812;50.942;3.644;2023-04-06T04:53:53;101592.72;;;6.67;100.00
52949;BME280;38812;50.942;3.644;2023-04-06T04:56:18;101584.81;;;6.60;100.00
52949;BME280;38812;50.942;3.644;2023-04-06T04:58:44;101591.81;;;6.64;100.00
52949;BME280;38812;50.942;3.644;2023-04-06T05:01:09;101586.56;;;6.61;100.00
52949;BME280;38812;50.942;3.644;2023-04-06T05:03:35;101590.03;;;6.60;100.00
52949;BME280;38812;50.942;3.644;2023-04-06T05:06:04;101591.75;;;6.54;100.00
52949;BME280;38812;50.942;3.644;2023-04-06T05:08:29;101576.94;;;6.49;100.00
52949;BME280;38812;50.942;3.644;2023-04-06T05:10:55;101576.06;;;6.48;100.00
52949;BME280;38812;50.942;3.644;2023-04-06T05:13:20;101588.25;;;6.52;100.00
52949;BME280;38812;50.942;3.644;2023-04-06T05:15:46;101578.66;;;6.47;100.00
52949;BME280;38812;50.942;3.644;2023-04-06T05:18:11;101579.53;;;6.50;100.00
52949;BME280;38812;50.942;3.644;2023-04-06T05:20:39;101574.31;;;6.47;100.00
52949;BME280;38812;50.942;3.644;2023-04-06T05:23:05;101577.81;;;6.49;100.00
52949;BME280;38812;50.942;3.644;2023-04-06T05:25:31;101568.19;;;6.44;100.00
52949;BME280;38812;50.942;3.644;2023-04-06T05:27:57;101567.31;;;6.43;100.00
52949;BME280;38812;50.942;3.644;2023-04-06T05:30:23;101572.53;;;6.43;100.00
52949;BME280;38812;50.942;3.644;2023-04-06T05:32:48;101571.69;;;6.47;100.00
52949;BME280;38812;50.942;3.644;2023-04-06T05:35:14;101569.94;;;6.46;100.00
52949;BME280;38812;50.942;3.644;2023-04-06T05:37:40;101565.63;;;6.48;100.00
52949;BME280;38812;50.942;3.644;2023-04-06T05:40:06;101572.56;;;6.46;100.00
52949;BME280;38812;50.942;3.644;2023-04-06T05:42:41;101565.53;;;6.39;100.00
52949;BME280;38812;50.942;3.644;2023-04-06T05:45:10;101570.00;;;6.56;100.00
52949;BME280;38812;50.942;3.644;2023-04-06T05:47:42;101564.81;;;6.60;100.00
52949;BME280;38812;50.942;3.644;2023-04-06T05:50:07;101561.41;;;6.69;100.00
52949;BME280;38812;50.942;3.644;2023-04-06T05:52:33;101561.31;;;6.58;100.00
52949;BME280;38812;50.942;3.644;2023-04-06T05:54:58;101549.97;;;6.54;100.00
52949;BME280;38812;50.942;3.644;2023-04-06T05:57:24;101553.44;;;6.49;100.00
52949;BME280;38812;50.942;3.644;2023-04-06T05:59:49;101561.28;;;6.55;100.00
52949;BME280;38812;50.942;3.644;2023-04-06T06:02:14;101563.88;;;6.50;100.00
52949;BME280;38812;50.942;3.644;2023-04-06T06:04:40;101556.91;;;6.52;100.00
52949;BME280;38812;50.942;3.644;2023-04-06T06:07:05;101557.81;;;6.56;100.00
52949;BME280;38812;50.942;3.644;2023-04-06T06:09:31;101556.97;;;6.59;100.00
52949;BME280;38812;50.942;3.644;2023-04-06T06:11:56;101550.84;;;6.55;100.00
52949;BME280;38812;50.942;3.644;2023-04-06T06:14:22;101550.00;;;6.58;100.00
52949;BME280;38812;50.942;3.644;2023-04-06T06:16:47;101540.53;;;6.76;100.00
52949;BME280;38812;50.942;3.644;2023-04-06T06:19:13;101542.31;;;6.80;100.00
52949;BME280;38812;50.942;3.644;2023-04-06T06:21:38;101531.78;;;6.71;100.00
52949;BME280;38812;50.942;3.644;2023-04-06T06:24:04;101533.44;;;6.56;100.00
52949;BME280;38812;50.942;3.644;2023-04-06T06:26:30;101535.28;;;6.70;100.00
52949;BME280;38812;50.942;3.644;2023-04-06T06:28:56;101536.16;;;6.74;100.00
52949;BME280;38812;50.942;3.644;2023-04-06T06:31:21;101530.16;;;6.88;100.00
52949;BME280;38812;50.942;3.644;2023-04-06T06:33:48;101524.94;;;6.88;100.00
52949;BME280;38812;50.942;3.644;2023-04-06T06:36:16;101527.56;;;6.90;100.00
52949;BME280;38812;50.942;3.644;2023-04-06T06:38:42;101519.72;;;6.87;100.00
52949;BME280;38812;50.942;3.644;2023-04-06T06:41:07;101526.69;;;6.86;100.00
52949;BME280;38812;50.942;3.644;2023-04-06T06:43:33;101519.72;;;6.87;100.00
52949;BME280;38812;50.942;3.644;2023-04-06T06:45:58;101515.34;;;6.86;100.00
52949;BME280;38812;50.942;3.644;2023-04-06T06:48:24;101514.41;;;6.75;100.00
52949;BME280;38812;50.942;3.644;2023-04-06T06:50:49;101521.44;;;6.83;100.00
52949;BME280;38812;50.942;3.644;2023-04-06T06:53:14;101514.50;;;6.88;100.00
52949;BME280;38812;50.942;3.644;2023-04-06T06:55:40;101509.31;;;7.01;100.00
52949;BME280;38812;50.942;3.644;2023-04-06T06:58:05;101499.75;;;7.01;100.00
52949;BME280;38812;50.942;3.644;2023-04-06T07:00:32;101512.78;;;7.01;100.00
52949;BME280;38812;50.942;3.644;2023-04-06T07:02:57;101515.44;;;7.04;100.00
52949;BME280;38812;50.942;3.644;2023-04-06T07:05:22;101498.91;;;7.07;100.00
52949;BME280;38812;50.942;3.644;2023-04-06T07:07:48;101503.28;;;7.14;100.00
52949;BME280;38812;50.942;3.644;2023-04-06T07:10:13;101509.34;;;7.16;100.00
52949;BME280;38812;50.942;3.644;2023-04-06T07:12:39;101498.91;;;7.19;100.00
52949;BME280;38812;50.942;3.644;2023-04-06T07:15:05;101508.47;;;7.15;100.00
52949;BME280;38812;50.942;3.644;2023-04-06T07:17:30;101505.00;;;7.10;100.00
52949;BME280;38812;50.942;3.644;2023-04-06T07:19:56;101510.22;;;7.16;100.00
52949;BME280;38812;50.942;3.644;2023-04-06T07:22:21;101503.28;;;7.21;100.00
52949;BME280;38812;50.942;3.644;2023-04-06T07:24:46;101505.03;;;7.13;100.00
52949;BME280;38812;50.942;3.644;2023-04-06T07:27:12;101498.03;;;7.18;100.00
52949;BME280;38812;50.942;3.644;2023-04-06T07:29:37;101498.06;;;7.14;100.00
52949;BME280;38812;50.942;3.644;2023-04-06T07:32:02;101497.16;;;7.16;100.00
52949;BME280;38812;50.942;3.644;2023-04-06T07:34:28;101495.44;;;7.12;100.00
52949;BME280;38812;50.942;3.644;2023-04-06T07:36:54;101499.78;;;7.18;100.00
52949;BME280;38812;50.942;3.644;2023-04-06T07:39:19;101491.94;;;7.15;100.00
52949;BME280;38812;50.942;3.644;2023-04-06T07:41:45;101500.66;;;7.15;100.00
52949;BME280;38812;50.942;3.644;2023-04-06T07:44:10;101491.97;;;7.22;100.00
52949;BME280;38812;50.942;3.644;2023-04-06T07:46:36;101492.84;;;7.21;100.00
52949;BME280;38812;50.942;3.644;2023-04-06T07:49:01;101493.72;;;7.25;100.00
52949;BME280;38812;50.942;3.644;2023-04-06T07:51:27;101488.50;;;7.25;100.00
52949;BME280;38812;50.942;3.644;2023-04-06T07:53:53;101490.25;;;7.29;100.00
52949;BME280;38812;50.942;3.644;2023-04-06T07:56:18;101490.28;;;7.35;100.00
52949;BME280;38812;50.942;3.644;2023-04-06T07:58:43;101494.63;;;7.41;100.00
52949;BME280;38812;50.942;3.644;2023-04-06T08:01:09;101487.66;;;7.43;100.00
52949;BME280;38812;50.942;3.644;2023-04-06T08:03:35;101501.59;;;7.42;100.00
52949;BME280;38812;50.942;3.644;2023-04-06T08:06:01;101487.69;;;7.52;100.00
52949;BME280;38812;50.942;3.644;2023-04-06T08:08:27;101479.84;;;7.58;100.00
52949;BME280;38812;50.942;3.644;2023-04-06T08:10:53;101485.94;;;7.52;100.00
52949;BME280;38812;50.942;3.644;2023-04-06T08:13:18;101492.03;;;7.50;100.00
52949;BME280;38812;50.942;3.644;2023-04-06T08:15:44;101478.09;;;7.48;100.00
52949;BME280;38812;50.942;3.644;2023-04-06T08:18:10;101471.09;;;7.35;100.00
52949;BME280;38812;50.942;3.644;2023-04-06T08:20:35;101483.31;;;7.45;100.00
52949;BME280;38812;50.942;3.644;2023-04-06T08:23:01;101489.41;;;7.42;100.00
52949;BME280;38812;50.942;3.644;2023-04-06T08:25:26;101487.66;;;7.43;100.00
52949;BME280;38812;50.942;3.644;2023-04-06T08:27:52;101484.19;;;7.44;100.00
52949;BME280;38812;50.942;3.644;2023-04-06T08:30:18;101484.16;;;7.41;100.00
52949;BME280;38812;50.942;3.644;2023-04-06T08:32:44;101478.09;;;7.45;100.00
52949;BME280;38812;50.942;3.644;2023-04-06T08:35:10;101489.44;;;7.51;100.00
52949;BME280;38812;50.942;3.644;2023-04-06T08:37:36;101485.94;;;7.45;100.00
52949;BME280;38812;50.942;3.644;2023-04-06T08:40:01;101488.53;;;7.33;100.00
52949;BME280;38812;50.942;3.644;2023-04-06T08:42:32;101487.66;;;7.41;100.00
52949;BME280;38812;50.942;3.644;2023-04-06T08:44:57;101476.31;;;7.36;100.00
52949;BME280;38812;50.942;3.644;2023-04-06T08:47:23;101483.31;;;7.49;100.00
52949;BME280;38812;50.942;3.644;2023-04-06T08:49:48;101472.00;;;7.52;100.00
52949;BME280;38812;50.942;3.644;2023-04-06T08:52:17;101471.13;;;7.48;100.00
52949;BME280;38812;50.942;3.644;2023-04-06T08:54:44;101486.81;;;7.65;100.00
52949;BME280;38812;50.942;3.644;2023-04-06T08:57:10;101478.97;;;7.59;100.00
52949;BME280;38812;50.942;3.644;2023-04-06T08:59:37;101472.88;;;7.58;100.00
52949;BME280;38812;50.942;3.644;2023-04-06T09:02:04;101458.94;;;7.55;100.00
52949;BME280;38812;50.942;3.644;2023-04-06T09:04:32;101472.03;;;7.70;100.00
52949;BME280;38812;50.942;3.644;2023-04-06T09:06:58;101463.28;;;7.68;100.00
52949;BME280;38812;50.942;3.644;2023-04-06T09:09:23;101467.66;;;7.74;100.00
52949;BME280;38812;50.942;3.644;2023-04-06T09:11:51;101465.03;;;7.81;100.00
52949;BME280;38812;50.942;3.644;2023-04-06T09:14:17;101463.28;;;7.80;100.00
52949;BME280;38812;50.942;3.644;2023-04-06T09:16:57;101470.28;;;7.69;100.00
52949;BME280;38812;50.942;3.644;2023-04-06T09:19:23;101461.56;;;7.69;100.00
52949;BME280;38812;50.942;3.644;2023-04-06T09:21:48;101468.53;;;7.65;100.00
52949;BME280;38812;50.942;3.644;2023-04-06T09:24:14;101462.44;;;7.77;100.00
52949;BME280;38812;50.942;3.644;2023-04-06T09:26:46;101447.59;;;7.65;100.00
52949;BME280;38812;50.942;3.644;2023-04-06T09:29:22;101465.03;;;7.84;100.00
52949;BME280;38812;50.942;3.644;2023-04-06T09:31:48;101461.56;;;7.91;100.00
52949;BME280;38812;50.942;3.644;2023-04-06T09:34:21;101456.31;;;8.07;100.00
52949;BME280;38812;50.942;3.644;2023-04-06T09:36:47;101447.59;;;7.96;100.00
52949;BME280;38812;50.942;3.644;2023-04-06T09:39:13;101451.09;;;7.91;100.00
52949;BME280;38812;50.942;3.644;2023-04-06T09:41:38;101452.81;;;7.85;100.00
52949;BME280;38812;50.942;3.644;2023-04-06T09:44:11;101452.84;;;7.89;100.00
52949;BME280;38812;50.942;3.644;2023-04-06T09:46:44;101439.75;;;7.86;100.00
52949;BME280;38812;50.942;3.644;2023-04-06T09:49:12;101450.22;;;7.83;100.00
52949;BME280;38812;50.942;3.644;2023-04-06T09:51:45;101458.06;;;7.82;100.00
52949;BME280;38812;50.942;3.644;2023-04-06T09:54:21;101445.88;;;7.79;100.00
52949;BME280;38812;50.942;3.644;2023-04-06T09:56:47;101451.09;;;7.91;100.00
52949;BME280;38812;50.942;3.644;2023-04-06T09:59:18;101438.88;;;7.81;100.00
52949;BME280;38812;50.942;3.644;2023-04-06T10:01:48;101438.00;;;7.82;100.00
52949;BME280;38812;50.942;3.644;2023-04-06T10:07:02;101437.13;;;7.86;100.00
52949;BME280;38812;50.942;3.644;2023-04-06T10:09:28;101438.88;;;7.89;100.00
52949;BME280;38812;50.942;3.644;2023-04-06T10:12:05;101426.69;;;7.94;100.00
52949;BME280;38812;50.942;3.644;2023-04-06T10:14:33;101424.03;;;8.02;100.00
52949;BME280;38812;50.942;3.644;2023-04-06T10:17:02;101424.94;;;8.01;100.00
52949;BME280;38812;50.942;3.644;2023-04-06T10:19:34;101419.66;;;8.07;100.00
52949;BME280;38812;50.942;3.644;2023-04-06T10:22:02;101417.91;;;8.12;100.00
52949;BME280;38812;50.942;3.644;2023-04-06T10:24:30;101424.91;;;8.08;100.00
52949;BME280;38812;50.942;3.644;2023-04-06T10:27:02;101410.94;;;8.09;100.00
52949;BME280;38812;50.942;3.644;2023-04-06T10:29:28;101427.50;;;8.10;100.00
52949;BME280;38812;50.942;3.644;2023-04-06T10:31:53;101412.72;;;7.90;100.00
52949;BME280;38812;50.942;3.644;2023-04-06T10:34:20;101414.47;;;7.95;100.00
52949;BME280;38812;50.942;3.644;2023-04-06T10:36:46;101418.78;;;8.06;100.00
52949;BME280;38812;50.942;3.644;2023-04-06T10:39:11;101417.91;;;8.18;100.00
52949;BME280;38812;50.942;3.644;2023-04-06T10:41:46;101418.75;;;8.27;100.00
52949;BME280;38812;50.942;3.644;2023-04-06T10:44:25;101414.41;;;8.37;100.00
52949;BME280;38812;50.942;3.644;2023-04-06T10:46:57;101405.63;;;8.50;100.00
52949;BME280;38812;50.942;3.644;2023-04-06T10:49:25;101405.66;;;8.44;100.00
52949;BME280;38812;50.942;3.644;2023-04-06T10:51:54;101410.00;;;8.47;100.00
52949;BME280;38812;50.942;3.644;2023-04-06T10:54:24;101402.13;;;8.57;100.00
52949;BME280;38812;50.942;3.644;2023-04-06T10:56:50;101402.13;;;8.57;100.00
52949;BME280;38812;50.942;3.644;2023-04-06T10:59:22;101401.22;;;8.62;100.00
52949;BME280;38812;50.942;3.644;2023-04-06T11:01:49;101395.97;;;8.65;100.00
52949;BME280;38812;50.942;3.644;2023-04-06T11:04:16;101395.94;;;8.71;100.00
52949;BME280;38812;50.942;3.644;2023-04-06T11:06:47;101395.13;;;8.59;100.00
52949;BME280;38812;50.942;3.644;2023-04-06T11:11:51;101380.38;;;8.34;100.00
52949;BME280;38812;50.942;3.644;2023-04-06T11:14:17;101384.72;;;8.44;100.00
52949;BME280;38812;50.942;3.644;2023-04-06T11:16:46;101378.63;;;8.35;100.00
52949;BME280;38812;50.942;3.644;2023-04-06T11:19:12;101385.56;;;8.46;100.00
52949;BME280;38812;50.942;3.644;2023-04-06T11:21:40;101377.75;;;8.40;100.00
52949;BME280;38812;50.942;3.644;2023-04-06T11:26:38;101383.00;;;8.37;100.00
52949;BME280;38812;50.942;3.644;2023-04-06T11:29:04;101379.47;;;8.29;100.00
52949;BME280;38812;50.942;3.644;2023-04-06T11:31:29;101381.25;;;8.36;100.00
52949;BME280;38812;50.942;3.644;2023-04-06T11:33:58;101375.13;;;8.31;100.00
52949;BME280;38812;50.942;3.644;2023-04-06T11:36:23;101373.41;;;8.35;100.00
52949;BME280;38812;50.942;3.644;2023-04-06T11:38:49;101375.13;;;8.36;100.00
52949;BME280;38812;50.942;3.644;2023-04-06T11:41:14;101367.28;;;8.37;100.00
52949;BME280;38812;50.942;3.644;2023-04-06T11:43:47;101363.78;;;8.44;100.00
52949;BME280;38812;50.942;3.644;2023-04-06T11:46:16;101371.56;;;8.61;100.00
52949;BME280;38812;50.942;3.644;2023-04-06T11:48:45;101368.06;;;8.61;100.00
52949;BME280;38812;50.942;3.644;2023-04-06T11:51:11;101350.63;;;8.52;100.00
52949;BME280;38812;50.942;3.644;2023-04-06T11:53:46;101354.13;;;8.52;100.00
52949;BME280;38812;50.942;3.644;2023-04-06T11:56:22;101355.00;;;8.51;100.00
52949;BME280;38812;50.942;3.644;2023-04-06T11:58:48;101350.63;;;8.52;100.00
52949;BME280;38812;50.942;3.644;2023-04-06T12:01:13;101355.84;;;8.53;100.00
52949;BME280;38812;50.942;3.644;2023-04-06T12:03:39;101348.94;;;8.43;100.00
52949;BME280;38812;50.942;3.644;2023-04-06T12:06:04;101347.16;;;8.47;100.00
52949;BME280;38812;50.942;3.644;2023-04-06T12:08:30;101342.84;;;8.38;100.00
52949;BME280;38812;50.942;3.644;2023-04-06T12:10:55;101341.03;;;8.46;100.00
52949;BME280;38812;50.942;3.644;2023-04-06T12:13:21;101334.94;;;8.46;100.00
52949;BME280;38812;50.942;3.644;2023-04-06T12:15:46;101332.31;;;8.49;100.00
52949;BME280;38812;50.942;3.644;2023-04-06T12:18:11;101320.09;;;8.48;100.00
52949;BME280;38812;50.942;3.644;2023-04-06T12:20:37;101340.13;;;8.63;100.00
52949;BME280;38812;50.942;3.644;2023-04-06T12:23:02;101326.97;;;8.69;100.00
52949;BME280;38812;50.942;3.644;2023-04-06T12:25:28;101332.94;;;8.89;100.00
52949;BME280;38812;50.942;3.644;2023-04-06T12:27:53;101331.28;;;8.82;100.00
52949;BME280;38812;50.942;3.644;2023-04-06T12:30:19;101320.72;;;8.88;100.00
52949;BME280;38812;50.942;3.644;2023-04-06T12:32:44;101330.22;;;9.07;100.00
52949;BME280;38812;50.942;3.644;2023-04-06T12:35:10;101325.00;;;9.04;100.00
52949;BME280;38812;50.942;3.644;2023-04-06T12:37:36;101318.03;;;9.03;100.00
52949;BME280;38812;50.942;3.644;2023-04-06T12:40:02;101316.28;;;8.99;100.00
52949;BME280;38812;50.942;3.644;2023-04-06T12:42:29;101318.00;;;9.09;100.00
52949;BME280;38812;50.942;3.644;2023-04-06T12:44:54;101325.78;;;9.17;100.00
52949;BME280;38812;50.942;3.644;2023-04-06T12:47:20;101318.75;;;9.20;100.00
52949;BME280;38812;50.942;3.644;2023-04-06T12:49:46;101314.34;;;9.25;100.00
52949;BME280;38812;50.942;3.644;2023-04-06T12:52:11;101316.97;;;9.27;100.00